sensor_id;sensor_type;location;lat;lon;timestamp;P1;durP1;ratioP1;P2;durP2;ratioP2
45252;SDS011;63171;50.520;30.486;2023-02-18T00:00:19;81.82;;;44.42;;
45252;SDS011;63171;50.520;30.486;2023-02-18T00:01:13;80.53;;;43.72;;
45252;SDS011;63171;50.520;30.486;2023-02-18T00:02:05;85.35;;;42.88;;
45252;SDS011;63171;50.520;30.486;2023-02-18T00:02:55;75.93;;;45.15;;
45252;SDS011;63171;50.520;30.486;2023-02-18T00:03:45;69.25;;;42.13;;
45252;SDS011;63171;50.520;30.486;2023-02-18T00:04:36;74.07;;;43.45;;
45252;SDS011;63171;50.520;30.486;2023-02-18T00:05:27;77.90;;;44.28;;
45252;SDS011;63171;50.520;30.486;2023-02-18T00:06:19;78.50;;;43.97;;
45252;SDS011;63171;50.520;30.486;2023-02-18T00:07:11;76.70;;;41.20;;
45252;SDS011;63171;50.520;30.486;2023-02-18T00:08:01;72.65;;;42.95;;
45252;SDS011;63171;50.520;30.486;2023-02-18T00:08:51;79.22;;;42.42;;
45252;SDS011;63171;50.520;30.486;2023-02-18T00:09:42;77.18;;;42.38;;
45252;SDS011;63171;50.520;30.486;2023-02-18T00:10:32;74.78;;;42.53;;
45252;SDS011;63171;50.520;30.486;2023-02-18T00:11:23;79.97;;;42.25;;
45252;SDS011;63171;50.520;30.486;2023-02-18T00:12:13;77.50;;;43.63;;
45252;SDS011;63171;50.520;30.486;2023-02-18T00:13:04;76.88;;;41.85;;
45252;SDS011;63171;50.520;30.486;2023-02-18T00:13:54;79.72;;;41.45;;
45252;SDS011;63171;50.520;30.486;2023-02-18T00:14:47;76.70;;;42.35;;
45252;SDS011;63171;50.520;30.486;2023-02-18T00:15:38;81.00;;;43.75;;
45252;SDS011;63171;50.520;30.486;2023-02-18T00:16:29;74.30;;;42.00;;
45252;SDS011;63171;50.520;30.486;2023-02-18T00:17:19;70.63;;;41.03;;
45252;SDS011;63171;50.520;30.486;2023-02-18T00:18:10;73.93;;;41.72;;
45252;SDS011;63171;50.520;30.486;2023-02-18T00:19:00;81.75;;;44.50;;
45252;SDS011;63171;50.520;30.486;2023-02-18T00:19:52;80.22;;;43.53;;
45252;SDS011;63171;50.520;30.486;2023-02-18T00:20:41;78.60;;;44.08;;
45252;SDS011;63171;50.520;30.486;2023-02-18T00:21:32;74.10;;;42.53;;
45252;SDS011;63171;50.520;30.486;2023-02-18T00:22:24;78.50;;;42.72;;
45252;SDS011;63171;50.520;30.486;2023-02-18T00:23:14;79.30;;;42.08;;
45252;SDS011;63171;50.520;30.486;2023-02-18T00:24:04;79.95;;;41.70;;
45252;SDS011;63171;50.520;30.486;2023-02-18T00:24:56;87.47;;;45.08;;
45252;SDS011;63171;50.520;30.486;2023-02-18T00:25:45;74.55;;;39.90;;
45252;SDS011;63171;50.520;30.486;2023-02-18T00:26:36;76.25;;;44.10;;
45252;SDS011;63171;50.520;30.486;2023-02-18T00:27:26;76.95;;;40.17;;
45252;SDS011;63171;50.520;30.486;2023-02-18T00:28:17;81.28;;;44.03;;
45252;SDS011;63171;50.520;30.486;2023-02-18T00:29:06;82.10;;;46.22;;
45252;SDS011;63171;50.520;30.486;2023-02-18T00:29:57;77.88;;;43.33;;
45252;SDS011;63171;50.520;30.486;2023-02-18T00:30:50;83.40;;;45.50;;
45252;SDS011;63171;50.520;30.486;2023-02-18T00:31:41;78.25;;;42.22;;
45252;SDS011;63171;50.520;30.486;2023-02-18T00:32:31;75.32;;;43.50;;
45252;SDS011;63171;50.520;30.486;2023-02-18T00:33:23;72.45;;;42.60;;
45252;SDS011;63171;50.520;30.486;2023-02-18T00:34:13;77.75;;;44.13;;
45252;SDS011;63171;50.520;30.486;2023-02-18T00:35:03;77.00;;;44.28;;
45252;SDS011;63171;50.520;30.486;2023-02-18T00:35:59;75.30;;;41.65;;
45252;SDS011;63171;50.520;30.486;2023-02-18T00:36:50;75.60;;;42.17;;
45252;SDS011;63171;50.520;30.486;2023-02-18T00:37:41;80.75;;;43.33;;
45252;SDS011;63171;50.520;30.486;2023-02-18T00:38:31;76.65;;;44.35;;
45252;SDS011;63171;50.520;30.486;2023-02-18T00:39:22;77.50;;;43.65;;
45252;SDS011;63171;50.520;30.486;2023-02-18T00:40:12;68.47;;;41.83;;
45252;SDS011;63171;50.520;30.486;2023-02-18T00:41:03;77.50;;;41.88;;
45252;SDS011;63171;50.520;30.486;2023-02-18T00:41:54;72.00;;;42.53;;
45252;SDS011;63171;50.520;30.486;2023-02-18T00:42:44;79.28;;;42.85;;
45252;SDS011;63171;50.520;30.486;2023-02-18T00:43:34;75.35;;;40.83;;
45252;SDS011;63171;50.520;30.486;2023-02-18T00:44:25;74.03;;;40.97;;
45252;SDS011;63171;50.520;30.486;2023-02-18T00:45:15;79.88;;;44.58;;
45252;SDS011;63171;50.520;30.486;2023-02-18T00:46:07;77.25;;;44.95;;
45252;SDS011;63171;50.520;30.486;2023-02-18T00:46:58;78.70;;;44.25;;
45252;SDS011;63171;50.520;30.486;2023-02-18T00:47:48;80.07;;;45.03;;
45252;SDS011;63171;50.520;30.486;2023-02-18T00:48:38;80.60;;;43.65;;
45252;SDS011;63171;50.520;30.486;2023-02-18T00:49:31;77.40;;;43.80;;
45252;SDS011;63171;50.520;30.486;2023-02-18T00:50:21;76.95;;;42.10;;
45252;SDS011;63171;50.520;30.486;2023-02-18T00:51:12;76.95;;;46.05;;
45252;SDS011;63171;50.520;30.486;2023-02-18T00:52:03;77.25;;;42.97;;
45252;SDS011;63171;50.520;30.486;2023-02-18T00:52:55;81.35;;;45.65;;
45252;SDS011;63171;50.520;30.486;2023-02-18T00:53:46;79.82;;;46.40;;
45252;SDS011;63171;50.520;30.486;2023-02-18T00:54:37;78.97;;;43.10;;
45252;SDS011;63171;50.520;30.486;2023-02-18T00:55:27;80.90;;;45.05;;
45252;SDS011;63171;50.520;30.486;2023-02-18T00:56:18;74.40;;;43.78;;
45252;SDS011;63171;50.520;30.486;2023-02-18T00:57:08;81.63;;;43.90;;
45252;SDS011;63171;50.520;30.486;2023-02-18T00:57:58;80.05;;;45.40;;
45252;SDS011;63171;50.520;30.486;2023-02-18T00:58:48;85.80;;;46.88;;
45252;SDS011;63171;50.520;30.486;2023-02-18T00:59:40;79.80;;;46.85;;
45252;SDS011;63171;50.520;30.486;2023-02-18T01:02:17;81.28;;;42.78;;
45252;SDS011;63171;50.520;30.486;2023-02-18T01:03:08;85.30;;;45.22;;
45252;SDS011;63171;50.520;30.486;2023-02-18T01:03:58;77.07;;;43.75;;
45252;SDS011;63171;50.520;30.486;2023-02-18T01:04:49;84.57;;;44.17;;
45252;SDS011;63171;50.520;30.486;2023-02-18T01:05:40;83.95;;;44.13;;
45252;SDS011;63171;50.520;30.486;2023-02-18T01:06:31;74.38;;;43.63;;
45252;SDS011;63171;50.520;30.486;2023-02-18T01:07:21;85.70;;;45.67;;
45252;SDS011;63171;50.520;30.486;2023-02-18T01:08:12;80.25;;;44.63;;
45252;SDS011;63171;50.520;30.486;2023-02-18T01:09:02;81.88;;;44.03;;
45252;SDS011;63171;50.520;30.486;2023-02-18T01:09:52;76.95;;;41.95;;
45252;SDS011;63171;50.520;30.486;2023-02-18T01:10:43;87.43;;;47.33;;
45252;SDS011;63171;50.520;30.486;2023-02-18T01:11:33;79.75;;;45.83;;
45252;SDS011;63171;50.520;30.486;2023-02-18T01:12:24;76.82;;;43.92;;
45252;SDS011;63171;50.520;30.486;2023-02-18T01:13:14;89.60;;;46.40;;
45252;SDS011;63171;50.520;30.486;2023-02-18T01:14:55;89.05;;;44.33;;
45252;SDS011;63171;50.520;30.486;2023-02-18T01:15:44;85.05;;;43.67;;
45252;SDS011;63171;50.520;30.486;2023-02-18T01:16:35;79.03;;;45.80;;
45252;SDS011;63171;50.520;30.486;2023-02-18T01:17:26;81.20;;;45.45;;
45252;SDS011;63171;50.520;30.486;2023-02-18T01:18:17;83.13;;;45.75;;
45252;SDS011;63171;50.520;30.486;2023-02-18T01:19:07;85.02;;;45.84;;
45252;SDS011;63171;50.520;30.486;2023-02-18T01:19:58;89.50;;;47.78;;
45252;SDS011;63171;50.520;30.486;2023-02-18T01:20:48;84.38;;;47.53;;
45252;SDS011;63171;50.520;30.486;2023-02-18T01:21:38;88.13;;;45.58;;
45252;SDS011;63171;50.520;30.486;2023-02-18T01:22:29;77.07;;;46.35;;
45252;SDS011;63171;50.520;30.486;2023-02-18T01:23:19;85.22;;;47.20;;
45252;SDS011;63171;50.520;30.486;2023-02-18T01:24:10;83.03;;;44.85;;
45252;SDS011;63171;50.520;30.486;2023-02-18T01:25:00;86.70;;;44.63;;
45252;SDS011;63171;50.520;30.486;2023-02-18T01:25:51;89.95;;;49.35;;
45252;SDS011;63171;50.520;30.486;2023-02-18T01:26:41;85.22;;;47.03;;
45252;SDS011;63171;50.520;30.486;2023-02-18T01:27:32;85.32;;;47.88;;
45252;SDS011;63171;50.520;30.486;2023-02-18T01:28:24;86.75;;;48.00;;
45252;SDS011;63171;50.520;30.486;2023-02-18T01:29:14;85.68;;;47.55;;
45252;SDS011;63171;50.520;30.486;2023-02-18T01:30:06;88.47;;;48.08;;
45252;SDS011;63171;50.520;30.486;2023-02-18T01:31:02;79.43;;;45.22;;
45252;SDS011;63171;50.520;30.486;2023-02-18T01:31:54;88.80;;;47.67;;
45252;SDS011;63171;50.520;30.486;2023-02-18T01:32:47;89.38;;;47.08;;
45252;SDS011;63171;50.520;30.486;2023-02-18T01:33:38;83.00;;;46.38;;
45252;SDS011;63171;50.520;30.486;2023-02-18T01:34:48;88.13;;;47.97;;
45252;SDS011;63171;50.520;30.486;2023-02-18T01:35:38;81.57;;;46.47;;
45252;SDS011;63171;50.520;30.486;2023-02-18T01:36:29;88.60;;;45.63;;
45252;SDS011;63171;50.520;30.486;2023-02-18T01:37:19;86.63;;;47.17;;
45252;SDS011;63171;50.520;30.486;2023-02-18T01:38:10;85.18;;;46.58;;
45252;SDS011;63171;50.520;30.486;2023-02-18T01:39:00;92.28;;;52.33;;
45252;SDS011;63171;50.520;30.486;2023-02-18T01:39:50;83.20;;;47.35;;
45252;SDS011;63171;50.520;30.486;2023-02-18T01:40:44;76.07;;;46.00;;
45252;SDS011;63171;50.520;30.486;2023-02-18T01:41:36;85.85;;;47.63;;
45252;SDS011;63171;50.520;30.486;2023-02-18T01:42:27;87.00;;;46.45;;
45252;SDS011;63171;50.520;30.486;2023-02-18T01:43:19;83.28;;;45.58;;
45252;SDS011;63171;50.520;30.486;2023-02-18T01:44:14;90.25;;;46.22;;
45252;SDS011;63171;50.520;30.486;2023-02-18T01:46:34;81.15;;;45.03;;
45252;SDS011;63171;50.520;30.486;2023-02-18T01:47:24;80.88;;;47.97;;
45252;SDS011;63171;50.520;30.486;2023-02-18T01:48:17;85.15;;;47.03;;
45252;SDS011;63171;50.520;30.486;2023-02-18T01:49:09;89.10;;;47.67;;
45252;SDS011;63171;50.520;30.486;2023-02-18T01:50:05;81.22;;;47.15;;
45252;SDS011;63171;50.520;30.486;2023-02-18T01:50:56;87.55;;;50.42;;
45252;SDS011;63171;50.520;30.486;2023-02-18T01:51:53;77.50;;;44.28;;
45252;SDS011;63171;50.520;30.486;2023-02-18T01:52:47;83.07;;;43.97;;
45252;SDS011;63171;50.520;30.486;2023-02-18T01:53:40;81.47;;;47.95;;
45252;SDS011;63171;50.520;30.486;2023-02-18T01:54:36;79.32;;;46.88;;
45252;SDS011;63171;50.520;30.486;2023-02-18T01:55:30;84.80;;;45.08;;
45252;SDS011;63171;50.520;30.486;2023-02-18T01:56:26;84.50;;;46.90;;
45252;SDS011;63171;50.520;30.486;2023-02-18T01:57:19;91.32;;;47.35;;
45252;SDS011;63171;50.520;30.486;2023-02-18T01:58:11;80.82;;;46.13;;
45252;SDS011;63171;50.520;30.486;2023-02-18T01:59:05;90.88;;;47.95;;
45252;SDS011;63171;50.520;30.486;2023-02-18T01:59:59;83.80;;;48.47;;
45252;SDS011;63171;50.520;30.486;2023-02-18T02:01:04;85.20;;;45.45;;
45252;SDS011;63171;50.520;30.486;2023-02-18T02:01:54;83.28;;;46.78;;
45252;SDS011;63171;50.520;30.486;2023-02-18T02:02:46;83.18;;;47.67;;
45252;SDS011;63171;50.520;30.486;2023-02-18T02:03:39;77.22;;;45.47;;
45252;SDS011;63171;50.520;30.486;2023-02-18T02:04:29;78.43;;;45.08;;
45252;SDS011;63171;50.520;30.486;2023-02-18T02:05:20;80.85;;;47.53;;
45252;SDS011;63171;50.520;30.486;2023-02-18T02:06:13;81.65;;;45.95;;
45252;SDS011;63171;50.520;30.486;2023-02-18T02:07:06;82.47;;;48.53;;
45252;SDS011;63171;50.520;30.486;2023-02-18T02:07:56;89.43;;;48.22;;
45252;SDS011;63171;50.520;30.486;2023-02-18T02:08:48;73.15;;;44.20;;
45252;SDS011;63171;50.520;30.486;2023-02-18T02:09:40;81.60;;;47.08;;
45252;SDS011;63171;50.520;30.486;2023-02-18T02:10:34;81.03;;;46.90;;
45252;SDS011;63171;50.520;30.486;2023-02-18T02:11:40;82.72;;;45.88;;
45252;SDS011;63171;50.520;30.486;2023-02-18T02:12:51;77.88;;;42.53;;
45252;SDS011;63171;50.520;30.486;2023-02-18T02:13:54;77.15;;;45.95;;
45252;SDS011;63171;50.520;30.486;2023-02-18T02:15:11;88.75;;;51.08;;
45252;SDS011;63171;50.520;30.486;2023-02-18T02:16:14;82.68;;;43.55;;
45252;SDS011;63171;50.520;30.486;2023-02-18T02:17:12;80.97;;;45.38;;
45252;SDS011;63171;50.520;30.486;2023-02-18T02:18:16;76.32;;;43.70;;
45252;SDS011;63171;50.520;30.486;2023-02-18T02:19:23;81.53;;;43.90;;
45252;SDS011;63171;50.520;30.486;2023-02-18T02:20:46;81.13;;;43.35;;
45252;SDS011;63171;50.520;30.486;2023-02-18T02:25:20;75.25;;;38.97;;
45252;SDS011;63171;50.520;30.486;2023-02-18T02:26:29;71.13;;;42.75;;
45252;SDS011;63171;50.520;30.486;2023-02-18T02:27:59;70.10;;;40.63;;
45252;SDS011;63171;50.520;30.486;2023-02-18T02:32:21;66.07;;;37.67;;
45252;SDS011;63171;50.520;30.486;2023-02-18T02:33:48;72.32;;;39.95;;
45252;SDS011;63171;50.520;30.486;2023-02-18T02:35:06;63.90;;;36.25;;
45252;SDS011;63171;50.520;30.486;2023-02-18T02:35:59;70.68;;;40.45;;
45252;SDS011;63171;50.520;30.486;2023-02-18T02:36:57;62.40;;;39.15;;
45252;SDS011;63171;50.520;30.486;2023-02-18T02:37:52;61.58;;;39.25;;
45252;SDS011;63171;50.520;30.486;2023-02-18T02:38:53;69.47;;;41.17;;
45252;SDS011;63171;50.520;30.486;2023-02-18T02:39:49;69.13;;;38.63;;
45252;SDS011;63171;50.520;30.486;2023-02-18T02:40:49;65.88;;;39.28;;
45252;SDS011;63171;50.520;30.486;2023-02-18T02:41:46;60.20;;;37.67;;
45252;SDS011;63171;50.520;30.486;2023-02-18T02:42:48;64.00;;;39.60;;
45252;SDS011;63171;50.520;30.486;2023-02-18T02:44:00;63.95;;;39.00;;
45252;SDS011;63171;50.520;30.486;2023-02-18T02:45:03;63.95;;;38.67;;
45252;SDS011;63171;50.520;30.486;2023-02-18T02:46:00;68.07;;;39.45;;
45252;SDS011;63171;50.520;30.486;2023-02-18T02:46:56;63.08;;;36.95;;
45252;SDS011;63171;50.520;30.486;2023-02-18T02:47:58;59.22;;;36.58;;
45252;SDS011;63171;50.520;30.486;2023-02-18T02:48:57;68.47;;;37.05;;
45252;SDS011;63171;50.520;30.486;2023-02-18T02:49:56;60.83;;;39.13;;
45252;SDS011;63171;50.520;30.486;2023-02-18T02:50:53;61.42;;;37.30;;
45252;SDS011;63171;50.520;30.486;2023-02-18T02:51:53;58.05;;;36.13;;
45252;SDS011;63171;50.520;30.486;2023-02-18T02:52:51;57.58;;;36.17;;
45252;SDS011;63171;50.520;30.486;2023-02-18T02:53:46;58.85;;;37.42;;
45252;SDS011;63171;50.520;30.486;2023-02-18T02:54:37;55.30;;;35.80;;
45252;SDS011;63171;50.520;30.486;2023-02-18T02:55:26;60.75;;;37.55;;
45252;SDS011;63171;50.520;30.486;2023-02-18T02:56:20;59.63;;;36.15;;
45252;SDS011;63171;50.520;30.486;2023-02-18T02:58:36;61.28;;;37.25;;
45252;SDS011;63171;50.520;30.486;2023-02-18T02:59:25;70.93;;;39.38;;
45252;SDS011;63171;50.520;30.486;2023-02-18T03:00:17;67.13;;;39.22;;
45252;SDS011;63171;50.520;30.486;2023-02-18T03:01:14;58.65;;;38.55;;
45252;SDS011;63171;50.520;30.486;2023-02-18T03:02:17;57.00;;;35.45;;
45252;SDS011;63171;50.520;30.486;2023-02-18T03:04:40;66.53;;;36.55;;
45252;SDS011;63171;50.520;30.486;2023-02-18T03:05:45;67.22;;;36.92;;
45252;SDS011;63171;50.520;30.486;2023-02-18T03:06:52;59.40;;;36.88;;
45252;SDS011;63171;50.520;30.486;2023-02-18T03:08:03;62.65;;;36.53;;
45252;SDS011;63171;50.520;30.486;2023-02-18T03:09:04;62.30;;;38.33;;
45252;SDS011;63171;50.520;30.486;2023-02-18T03:10:08;61.80;;;38.55;;
45252;SDS011;63171;50.520;30.486;2023-02-18T03:11:13;62.42;;;36.60;;
45252;SDS011;63171;50.520;30.486;2023-02-18T03:12:07;60.50;;;37.17;;
45252;SDS011;63171;50.520;30.486;2023-02-18T03:13:06;56.88;;;34.67;;
45252;SDS011;63171;50.520;30.486;2023-02-18T03:14:06;59.30;;;38.35;;
45252;SDS011;63171;50.520;30.486;2023-02-18T03:15:04;63.42;;;38.38;;
45252;SDS011;63171;50.520;30.486;2023-02-18T03:16:01;59.30;;;36.58;;
45252;SDS011;63171;50.520;30.486;2023-02-18T03:17:04;61.53;;;37.33;;
45252;SDS011;63171;50.520;30.486;2023-02-18T03:18:03;61.25;;;37.75;;
45252;SDS011;63171;50.520;30.486;2023-02-18T03:18:59;56.38;;;36.70;;
45252;SDS011;63171;50.520;30.486;2023-02-18T03:19:55;58.30;;;35.60;;
45252;SDS011;63171;50.520;30.486;2023-02-18T03:20:52;69.38;;;38.63;;
45252;SDS011;63171;50.520;30.486;2023-02-18T03:21:47;63.25;;;38.88;;
45252;SDS011;63171;50.520;30.486;2023-02-18T03:22:43;60.35;;;37.15;;
45252;SDS011;63171;50.520;30.486;2023-02-18T03:23:37;66.28;;;39.40;;
45252;SDS011;63171;50.520;30.486;2023-02-18T03:24:32;64.45;;;39.45;;
45252;SDS011;63171;50.520;30.486;2023-02-18T03:25:26;63.90;;;39.38;;
45252;SDS011;63171;50.520;30.486;2023-02-18T03:26:17;65.20;;;41.17;;
45252;SDS011;63171;50.520;30.486;2023-02-18T03:27:13;65.22;;;39.90;;
45252;SDS011;63171;50.520;30.486;2023-02-18T03:28:09;66.20;;;40.97;;
45252;SDS011;63171;50.520;30.486;2023-02-18T03:29:03;67.03;;;39.83;;
45252;SDS011;63171;50.520;30.486;2023-02-18T03:29:57;63.35;;;40.50;;
45252;SDS011;63171;50.520;30.486;2023-02-18T03:30:52;68.07;;;40.72;;
45252;SDS011;63171;50.520;30.486;2023-02-18T03:31:46;64.18;;;40.00;;
45252;SDS011;63171;50.520;30.486;2023-02-18T03:32:41;66.53;;;39.83;;
45252;SDS011;63171;50.520;30.486;2023-02-18T03:33:36;68.60;;;41.25;;
45252;SDS011;63171;50.520;30.486;2023-02-18T03:34:29;62.35;;;41.88;;
45252;SDS011;63171;50.520;30.486;2023-02-18T03:35:22;66.35;;;40.13;;
45252;SDS011;63171;50.520;30.486;2023-02-18T03:36:14;67.00;;;39.75;;
45252;SDS011;63171;50.520;30.486;2023-02-18T03:37:07;65.90;;;39.90;;
45252;SDS011;63171;50.520;30.486;2023-02-18T03:38:00;63.15;;;39.33;;
45252;SDS011;63171;50.520;30.486;2023-02-18T03:38:58;64.70;;;40.58;;
45252;SDS011;63171;50.520;30.486;2023-02-18T03:39:52;67.90;;;41.08;;
45252;SDS011;63171;50.520;30.486;2023-02-18T03:40:46;72.05;;;41.92;;
45252;SDS011;63171;50.520;30.486;2023-02-18T03:41:36;63.97;;;39.95;;
45252;SDS011;63171;50.520;30.486;2023-02-18T03:42:27;69.35;;;40.70;;
45252;SDS011;63171;50.520;30.486;2023-02-18T03:43:17;71.38;;;41.70;;
45252;SDS011;63171;50.520;30.486;2023-02-18T03:44:08;71.85;;;41.70;;
45252;SDS011;63171;50.520;30.486;2023-02-18T03:44:59;71.40;;;42.33;;
45252;SDS011;63171;50.520;30.486;2023-02-18T03:45:49;71.78;;;44.55;;
45252;SDS011;63171;50.520;30.486;2023-02-18T03:46:40;76.30;;;44.85;;
45252;SDS011;63171;50.520;30.486;2023-02-18T03:47:32;73.30;;;42.55;;
45252;SDS011;63171;50.520;30.486;2023-02-18T03:48:22;79.50;;;44.03;;
45252;SDS011;63171;50.520;30.486;2023-02-18T03:49:15;69.85;;;42.67;;
45252;SDS011;63171;50.520;30.486;2023-02-18T03:50:05;72.25;;;43.40;;
45252;SDS011;63171;50.520;30.486;2023-02-18T03:50:57;67.78;;;41.60;;
45252;SDS011;63171;50.520;30.486;2023-02-18T03:51:48;69.45;;;39.63;;
45252;SDS011;63171;50.520;30.486;2023-02-18T03:52:39;73.50;;;41.30;;
45252;SDS011;63171;50.520;30.486;2023-02-18T03:53:28;68.63;;;40.97;;
45252;SDS011;63171;50.520;30.486;2023-02-18T03:54:19;67.57;;;42.63;;
45252;SDS011;63171;50.520;30.486;2023-02-18T03:55:09;66.38;;;41.28;;
45252;SDS011;63171;50.520;30.486;2023-02-18T03:56:00;64.05;;;39.83;;
45252;SDS011;63171;50.520;30.486;2023-02-18T03:56:50;68.18;;;40.40;;
45252;SDS011;63171;50.520;30.486;2023-02-18T03:57:41;73.88;;;40.05;;
45252;SDS011;63171;50.520;30.486;2023-02-18T03:58:30;66.13;;;41.40;;
45252;SDS011;63171;50.520;30.486;2023-02-18T03:59:39;69.53;;;39.00;;
45252;SDS011;63171;50.520;30.486;2023-02-18T04:00:29;62.92;;;40.08;;
45252;SDS011;63171;50.520;30.486;2023-02-18T04:01:20;66.47;;;41.22;;
45252;SDS011;63171;50.520;30.486;2023-02-18T04:02:10;69.75;;;39.85;;
45252;SDS011;63171;50.520;30.486;2023-02-18T04:03:01;64.72;;;40.20;;
45252;SDS011;63171;50.520;30.486;2023-02-18T04:03:50;65.90;;;39.85;;
45252;SDS011;63171;50.520;30.486;2023-02-18T04:04:43;70.07;;;40.80;;
45252;SDS011;63171;50.520;30.486;2023-02-18T04:05:33;72.82;;;42.50;;
45252;SDS011;63171;50.520;30.486;2023-02-18T04:06:24;66.82;;;42.55;;
45252;SDS011;63171;50.520;30.486;2023-02-18T04:07:15;67.35;;;39.78;;
45252;SDS011;63171;50.520;30.486;2023-02-18T04:08:05;68.47;;;40.95;;
45252;SDS011;63171;50.520;30.486;2023-02-18T04:08:55;61.38;;;39.90;;
45252;SDS011;63171;50.520;30.486;2023-02-18T04:09:46;62.28;;;40.22;;
45252;SDS011;63171;50.520;30.486;2023-02-18T04:10:35;66.97;;;42.25;;
45252;SDS011;63171;50.520;30.486;2023-02-18T04:11:26;69.40;;;41.10;;
45252;SDS011;63171;50.520;30.486;2023-02-18T04:12:16;66.55;;;38.72;;
45252;SDS011;63171;50.520;30.486;2023-02-18T04:13:06;64.72;;;39.60;;
45252;SDS011;63171;50.520;30.486;2023-02-18T04:13:56;64.65;;;40.92;;
45252;SDS011;63171;50.520;30.486;2023-02-18T04:15:36;72.35;;;40.28;;
45252;SDS011;63171;50.520;30.486;2023-02-18T04:16:27;61.05;;;38.80;;
45252;SDS011;63171;50.520;30.486;2023-02-18T04:17:16;60.25;;;36.67;;
45252;SDS011;63171;50.520;30.486;2023-02-18T04:18:07;62.95;;;38.80;;
45252;SDS011;63171;50.520;30.486;2023-02-18T04:18:56;67.90;;;39.05;;
45252;SDS011;63171;50.520;30.486;2023-02-18T04:19:47;67.28;;;39.38;;
45252;SDS011;63171;50.520;30.486;2023-02-18T04:20:37;59.97;;;38.10;;
45252;SDS011;63171;50.520;30.486;2023-02-18T04:21:28;63.55;;;39.00;;
45252;SDS011;63171;50.520;30.486;2023-02-18T04:22:19;61.85;;;38.42;;
45252;SDS011;63171;50.520;30.486;2023-02-18T04:23:10;62.05;;;37.65;;
45252;SDS011;63171;50.520;30.486;2023-02-18T04:24:00;60.00;;;37.03;;
45252;SDS011;63171;50.520;30.486;2023-02-18T04:24:51;64.20;;;39.90;;
45252;SDS011;63171;50.520;30.486;2023-02-18T04:25:41;60.85;;;37.65;;
45252;SDS011;63171;50.520;30.486;2023-02-18T04:26:31;55.60;;;37.95;;
45252;SDS011;63171;50.520;30.486;2023-02-18T04:27:21;60.70;;;35.80;;
45252;SDS011;63171;50.520;30.486;2023-02-18T04:28:12;61.92;;;38.25;;
45252;SDS011;63171;50.520;30.486;2023-02-18T04:29:03;59.95;;;36.90;;
45252;SDS011;63171;50.520;30.486;2023-02-18T04:29:54;59.92;;;36.53;;
45252;SDS011;63171;50.520;30.486;2023-02-18T04:30:44;57.38;;;33.15;;
45252;SDS011;63171;50.520;30.486;2023-02-18T04:31:36;57.55;;;36.53;;
45252;SDS011;63171;50.520;30.486;2023-02-18T04:32:25;61.25;;;38.40;;
45252;SDS011;63171;50.520;30.486;2023-02-18T04:33:16;57.60;;;35.88;;
45252;SDS011;63171;50.520;30.486;2023-02-18T04:34:06;64.47;;;38.95;;
45252;SDS011;63171;50.520;30.486;2023-02-18T04:34:57;58.08;;;35.90;;
45252;SDS011;63171;50.520;30.486;2023-02-18T04:35:46;60.08;;;35.13;;
45252;SDS011;63171;50.520;30.486;2023-02-18T04:36:37;58.53;;;34.95;;
45252;SDS011;63171;50.520;30.486;2023-02-18T04:37:28;56.63;;;34.53;;
45252;SDS011;63171;50.520;30.486;2023-02-18T04:38:19;57.63;;;34.30;;
45252;SDS011;63171;50.520;30.486;2023-02-18T04:39:09;57.03;;;34.67;;
45252;SDS011;63171;50.520;30.486;2023-02-18T04:40:00;51.40;;;32.95;;
45252;SDS011;63171;50.520;30.486;2023-02-18T04:40:50;55.95;;;33.38;;
45252;SDS011;63171;50.520;30.486;2023-02-18T04:41:40;59.55;;;34.45;;
45252;SDS011;63171;50.520;30.486;2023-02-18T04:42:30;50.78;;;33.80;;
45252;SDS011;63171;50.520;30.486;2023-02-18T04:43:21;49.60;;;33.15;;
45252;SDS011;63171;50.520;30.486;2023-02-18T04:44:10;56.17;;;35.47;;
45252;SDS011;63171;50.520;30.486;2023-02-18T04:45:01;56.42;;;36.15;;
45252;SDS011;63171;50.520;30.486;2023-02-18T04:45:52;51.47;;;33.83;;
45252;SDS011;63171;50.520;30.486;2023-02-18T04:46:42;56.22;;;33.22;;
45252;SDS011;63171;50.520;30.486;2023-02-18T04:47:32;56.88;;;34.13;;
45252;SDS011;63171;50.520;30.486;2023-02-18T04:48:23;51.80;;;32.15;;
45252;SDS011;63171;50.520;30.486;2023-02-18T04:49:12;48.80;;;32.80;;
45252;SDS011;63171;50.520;30.486;2023-02-18T04:50:03;49.30;;;29.75;;
45252;SDS011;63171;50.520;30.486;2023-02-18T04:50:54;51.20;;;32.13;;
45252;SDS011;63171;50.520;30.486;2023-02-18T04:51:45;52.83;;;32.55;;
45252;SDS011;63171;50.520;30.486;2023-02-18T04:52:37;52.38;;;33.15;;
45252;SDS011;63171;50.520;30.486;2023-02-18T04:53:27;50.13;;;31.95;;
45252;SDS011;63171;50.520;30.486;2023-02-18T04:54:17;54.70;;;33.58;;
45252;SDS011;63171;50.520;30.486;2023-02-18T04:55:08;50.65;;;30.38;;
45252;SDS011;63171;50.520;30.486;2023-02-18T04:55:58;51.00;;;33.15;;
45252;SDS011;63171;50.520;30.486;2023-02-18T04:56:49;50.58;;;31.45;;
45252;SDS011;63171;50.520;30.486;2023-02-18T04:57:40;51.15;;;32.17;;
45252;SDS011;63171;50.520;30.486;2023-02-18T04:58:30;55.38;;;32.88;;
45252;SDS011;63171;50.520;30.486;2023-02-18T04:59:20;50.10;;;31.30;;
45252;SDS011;63171;50.520;30.486;2023-02-18T05:00:13;52.53;;;32.22;;
45252;SDS011;63171;50.520;30.486;2023-02-18T05:01:04;55.92;;;32.72;;
45252;SDS011;63171;50.520;30.486;2023-02-18T05:01:55;55.75;;;34.38;;
45252;SDS011;63171;50.520;30.486;2023-02-18T05:02:45;56.00;;;34.78;;
45252;SDS011;63171;50.520;30.486;2023-02-18T05:03:36;51.35;;;32.17;;
45252;SDS011;63171;50.520;30.486;2023-02-18T05:04:26;56.72;;;32.78;;
45252;SDS011;63171;50.520;30.486;2023-02-18T05:05:16;51.70;;;33.90;;
45252;SDS011;63171;50.520;30.486;2023-02-18T05:06:06;51.42;;;32.28;;
45252;SDS011;63171;50.520;30.486;2023-02-18T05:06:57;53.42;;;34.00;;
45252;SDS011;63171;50.520;30.486;2023-02-18T05:07:48;57.00;;;34.08;;
45252;SDS011;63171;50.520;30.486;2023-02-18T05:08:39;58.42;;;34.20;;
45252;SDS011;63171;50.520;30.486;2023-02-18T05:09:28;60.55;;;35.33;;
45252;SDS011;63171;50.520;30.486;2023-02-18T05:10:19;50.65;;;31.15;;
45252;SDS011;63171;50.520;30.486;2023-02-18T05:11:09;51.08;;;32.47;;
45252;SDS011;63171;50.520;30.486;2023-02-18T05:12:00;51.17;;;31.05;;
45252;SDS011;63171;50.520;30.486;2023-02-18T05:12:49;53.17;;;32.90;;
45252;SDS011;63171;50.520;30.486;2023-02-18T05:13:40;48.08;;;31.00;;
45252;SDS011;63171;50.520;30.486;2023-02-18T05:14:30;52.65;;;31.95;;
45252;SDS011;63171;50.520;30.486;2023-02-18T05:15:21;48.05;;;30.45;;
45252;SDS011;63171;50.520;30.486;2023-02-18T05:16:10;51.42;;;32.00;;
45252;SDS011;63171;50.520;30.486;2023-02-18T05:17:00;53.53;;;32.33;;
45252;SDS011;63171;50.520;30.486;2023-02-18T05:17:51;50.95;;;33.70;;
45252;SDS011;63171;50.520;30.486;2023-02-18T05:18:41;56.38;;;37.97;;
45252;SDS011;63171;50.520;30.486;2023-02-18T05:19:32;52.08;;;31.63;;
45252;SDS011;63171;50.520;30.486;2023-02-18T05:20:22;47.35;;;31.60;;